sensor_id;sensor_type;location;lat;lon;timestamp;pressure;altitude;pressure_sealevel;temperature;humidity
18533;BME280;9396;51.510;11.934;2023-02-28T00:00:36;102002.59;;;2.36;86.71
18533;BME280;9396;51.510;11.934;2023-02-28T00:03:03;102002.09;;;2.26;87.35
18533;BME280;9396;51.510;11.934;2023-02-28T00:05:30;101999.88;;;2.17;87.07
18533;BME280;9396;51.510;11.934;2023-02-28T00:07:56;102007.69;;;2.18;86.62
18533;BME280;9396;51.510;11.934;2023-02-28T00:10:25;102000.47;;;2.24;86.86
18533;BME280;9396;51.510;11.934;2023-02-28T00:12:55;102001.56;;;2.18;86.51
18533;BME280;9396;51.510;11.934;2023-02-28T00:15:23;102005.97;;;2.17;86.85
18533;BME280;9396;51.510;11.934;2023-02-28T00:17:50;102007.19;;;2.09;87.04
18533;BME280;9396;51.510;11.934;2023-02-28T00:20:18;102008.84;;;2.11;87.32
18533;BME280;9396;51.510;11.934;2023-02-28T00:22:47;102003.34;;;2.17;87.15
18533;BME280;9396;51.510;11.934;2023-02-28T00:25:15;101999.69;;;2.22;86.02
18533;BME280;9396;51.510;11.934;2023-02-28T00:27:43;101997.00;;;2.23;86.21
18533;BME280;9396;51.510;11.934;2023-02-28T00:30:12;101994.06;;;2.31;86.88
18533;BME280;9396;51.510;11.934;2023-02-28T00:32:40;101998.34;;;2.33;86.71
18533;BME280;9396;51.510;11.934;2023-02-28T00:35:08;101993.75;;;2.38;86.18
18533;BME280;9396;51.510;11.934;2023-02-28T00:37:35;101990.19;;;2.39;86.80
18533;BME280;9396;51.510;11.934;2023-02-28T00:40:02;101995.31;;;2.42;85.95
18533;BME280;9396;51.510;11.934;2023-02-28T00:42:30;101993.69;;;2.40;86.30
18533;BME280;9396;51.510;11.934;2023-02-28T00:44:56;101997.94;;;2.42;85.94
18533;BME280;9396;51.510;11.934;2023-02-28T00:47:24;101996.13;;;2.44;85.27
18533;BME280;9396;51.510;11.934;2023-02-28T00:49:51;102003.03;;;2.47;84.69
18533;BME280;9396;51.510;11.934;2023-02-28T00:52:18;101997.94;;;2.42;84.22
18533;BME280;9396;51.510;11.934;2023-02-28T00:54:44;101998.88;;;2.41;85.02
18533;BME280;9396;51.510;11.934;2023-02-28T00:57:11;101995.44;;;2.39;85.24
18533;BME280;9396;51.510;11.934;2023-02-28T00:59:37;101998.06;;;2.39;85.28
18533;BME280;9396;51.510;11.934;2023-02-28T01:02:04;102000.69;;;2.39;85.96
18533;BME280;9396;51.510;11.934;2023-02-28T01:04:32;101998.81;;;2.43;84.86
18533;BME280;9396;51.510;11.934;2023-02-28T01:06:59;101999.00;;;2.38;84.58
18533;BME280;9396;51.510;11.934;2023-02-28T01:09:25;101991.50;;;2.29;85.17
18533;BME280;9396;51.510;11.934;2023-02-28T01:11:52;101998.09;;;2.17;86.12
18533;BME280;9396;51.510;11.934;2023-02-28T01:14:19;101993.84;;;2.15;86.56
18533;BME280;9396;51.510;11.934;2023-02-28T01:16:45;101993.75;;;1.95;86.08
18533;BME280;9396;51.510;11.934;2023-02-28T01:19:12;101998.28;;;1.91;87.00
18533;BME280;9396;51.510;11.934;2023-02-28T01:21:40;102001.69;;;1.93;86.60
18533;BME280;9396;51.510;11.934;2023-02-28T01:24:07;101999.88;;;1.95;85.91
18533;BME280;9396;51.510;11.934;2023-02-28T01:26:34;101998.78;;;2.01;86.58
18533;BME280;9396;51.510;11.934;2023-02-28T01:29:00;101991.66;;;2.04;86.19
18533;BME280;9396;51.510;11.934;2023-02-28T01:31:27;101996.88;;;2.04;86.79
18533;BME280;9396;51.510;11.934;2023-02-28T01:33:54;101989.13;;;2.01;85.98
18533;BME280;9396;51.510;11.934;2023-02-28T01:36:22;101991.81;;;2.00;86.80
18533;BME280;9396;51.510;11.934;2023-02-28T01:38:51;101992.22;;;1.89;86.14
18533;BME280;9396;51.510;11.934;2023-02-28T01:41:20;101991.38;;;1.67;86.92
18533;BME280;9396;51.510;11.934;2023-02-28T01:43:57;101973.66;;;1.51;87.48
18533;BME280;9396;51.510;11.934;2023-02-28T01:46:24;101938.50;;;1.10;86.98
18533;BME280;9396;51.510;11.934;2023-02-28T01:48:54;101982.72;;;1.64;87.88
18533;BME280;9396;51.510;11.934;2023-02-28T01:51:26;101990.94;;;1.78;87.96
18533;BME280;9396;51.510;11.934;2023-02-28T01:54:00;101981.53;;;1.72;87.33
18533;BME280;9396;51.510;11.934;2023-02-28T01:56:32;101970.06;;;1.75;87.94
18533;BME280;9396;51.510;11.934;2023-02-28T01:59:01;101970.00;;;1.76;87.93
18533;BME280;9396;51.510;11.934;2023-02-28T02:01:28;101979.81;;;1.71;86.95
18533;BME280;9396;51.510;11.934;2023-02-28T02:03:57;101980.31;;;1.59;86.59
18533;BME280;9396;51.510;11.934;2023-02-28T02:06:25;101975.56;;;1.69;86.96
18533;BME280;9396;51.510;11.934;2023-02-28T02:08:54;101969.25;;;1.74;87.61
18533;BME280;9396;51.510;11.934;2023-02-28T02:11:22;101863.31;;;1.12;87.06
18533;BME280;9396;51.510;11.934;2023-02-28T02:14:06;101978.56;;;1.81;87.11
18533;BME280;9396;51.510;11.934;2023-02-28T02:16:45;101980.13;;;1.85;87.52
18533;BME280;9396;51.510;11.934;2023-02-28T02:19:35;101980.16;;;1.62;86.92
18533;BME280;9396;51.510;11.934;2023-02-28T02:22:21;101970.25;;;1.70;86.51
18533;BME280;9396;51.510;11.934;2023-02-28T02:25:17;101971.63;;;1.57;85.91
18533;BME280;9396;51.510;11.934;2023-02-28T02:28:04;101976.59;;;1.65;86.18
18533;BME280;9396;51.510;11.934;2023-02-28T02:30:46;101973.09;;;1.64;85.97
18533;BME280;9396;51.510;11.934;2023-02-28T02:36:26;101971.50;;;1.60;85.82
18533;BME280;9396;51.510;11.934;2023-02-28T02:38:59;101973.84;;;1.68;86.85
18533;BME280;9396;51.510;11.934;2023-02-28T02:41:35;101967.38;;;1.76;87.08
18533;BME280;9396;51.510;11.934;2023-02-28T02:44:07;101977.50;;;1.85;86.82
18533;BME280;9396;51.510;11.934;2023-02-28T02:46:38;101965.03;;;1.92;87.09
18533;BME280;9396;51.510;11.934;2023-02-28T02:49:11;101961.31;;;1.76;87.89
18533;BME280;9396;51.510;11.934;2023-02-28T02:51:42;101973.31;;;1.81;85.78
18533;BME280;9396;51.510;11.934;2023-02-28T02:54:12;101968.63;;;1.89;86.32
18533;BME280;9396;51.510;11.934;2023-02-28T02:56:42;101970.03;;;1.98;87.21
18533;BME280;9396;51.510;11.934;2023-02-28T02:59:11;101966.22;;;2.05;87.57
18533;BME280;9396;51.510;11.934;2023-02-28T03:01:40;101957.69;;;2.00;87.09
18533;BME280;9396;51.510;11.934;2023-02-28T03:04:10;101966.97;;;2.08;87.76
18533;BME280;9396;51.510;11.934;2023-02-28T03:06:38;101970.09;;;1.96;87.82
18533;BME280;9396;51.510;11.934;2023-02-28T03:09:06;101968.06;;;2.03;87.43
18533;BME280;9396;51.510;11.934;2023-02-28T03:11:35;101969.03;;;1.79;86.09
18533;BME280;9396;51.510;11.934;2023-02-28T03:14:30;101973.13;;;1.86;86.84
18533;BME280;9396;51.510;11.934;2023-02-28T03:17:23;101972.50;;;1.58;87.50
18533;BME280;9396;51.510;11.934;2023-02-28T03:19:57;101970.06;;;1.75;86.16
18533;BME280;9396;51.510;11.934;2023-02-28T03:22:43;101974.84;;;1.87;86.45
18533;BME280;9396;51.510;11.934;2023-02-28T03:25:20;101913.28;;;1.52;86.78
18533;BME280;9396;51.510;11.934;2023-02-28T03:27:54;101969.94;;;1.99;86.71
18533;BME280;9396;51.510;11.934;2023-02-28T03:30:24;101985.06;;;1.71;87.11
18533;BME280;9396;51.510;11.934;2023-02-28T03:32:57;101985.75;;;1.53;87.89
18533;BME280;9396;51.510;11.934;2023-02-28T03:35:27;101982.00;;;1.60;87.44
18533;BME280;9396;51.510;11.934;2023-02-28T03:38:01;101979.34;;;1.62;87.39
18533;BME280;9396;51.510;11.934;2023-02-28T03:40:33;101983.13;;;1.32;85.95
18533;BME280;9396;51.510;11.934;2023-02-28T03:43:04;101973.84;;;1.45;87.51
18533;BME280;9396;51.510;11.934;2023-02-28T03:45:36;101972.72;;;1.52;87.59
18533;BME280;9396;51.510;11.934;2023-02-28T03:48:08;101975.78;;;1.63;87.67
18533;BME280;9396;51.510;11.934;2023-02-28T03:50:40;101979.53;;;1.79;87.99
18533;BME280;9396;51.510;11.934;2023-02-28T03:53:12;101972.78;;;1.95;87.84
18533;BME280;9396;51.510;11.934;2023-02-28T03:55:43;101979.56;;;2.00;87.29
18533;BME280;9396;51.510;11.934;2023-02-28T03:58:16;101982.78;;;2.07;87.22
18533;BME280;9396;51.510;11.934;2023-02-28T04:00:47;101963.00;;;1.98;86.58
18533;BME280;9396;51.510;11.934;2023-02-28T04:03:15;101972.41;;;2.04;86.06
18533;BME280;9396;51.510;11.934;2023-02-28T04:05:49;101977.28;;;2.13;85.66
18533;BME280;9396;51.510;11.934;2023-02-28T04:08:16;101985.03;;;2.16;86.59
18533;BME280;9396;51.510;11.934;2023-02-28T04:10:50;101977.97;;;2.18;85.94
18533;BME280;9396;51.510;11.934;2023-02-28T04:13:17;101980.38;;;2.22;86.35
18533;BME280;9396;51.510;11.934;2023-02-28T04:15:44;101981.19;;;2.25;85.77
18533;BME280;9396;51.510;11.934;2023-02-28T04:18:11;101985.53;;;2.26;86.28
18533;BME280;9396;51.510;11.934;2023-02-28T04:20:37;101985.97;;;1.93;85.44
18533;BME280;9396;51.510;11.934;2023-02-28T04:23:04;101981.94;;;2.06;86.41
18533;BME280;9396;51.510;11.934;2023-02-28T04:25:30;101982.84;;;2.05;86.40
18533;BME280;9396;51.510;11.934;2023-02-28T04:27:58;101988.56;;;1.93;85.15
18533;BME280;9396;51.510;11.934;2023-02-28T04:30:25;101988.16;;;1.59;84.29
18533;BME280;9396;51.510;11.934;2023-02-28T04:32:52;101999.38;;;1.63;85.43
18533;BME280;9396;51.510;11.934;2023-02-28T04:35:18;101991.56;;;1.84;85.71
18533;BME280;9396;51.510;11.934;2023-02-28T04:37:45;102001.19;;;1.84;85.20
18533;BME280;9396;51.510;11.934;2023-02-28T04:40:11;101999.31;;;1.87;84.68
18533;BME280;9396;51.510;11.934;2023-02-28T04:42:38;101998.06;;;1.97;84.05
18533;BME280;9396;51.510;11.934;2023-02-28T04:45:08;101999.06;;;1.93;83.59
18533;BME280;9396;51.510;11.934;2023-02-28T04:47:35;102003.81;;;1.84;84.25
18533;BME280;9396;51.510;11.934;2023-02-28T04:50:02;101995.06;;;1.83;84.74
18533;BME280;9396;51.510;11.934;2023-02-28T04:52:29;101989.34;;;1.74;84.70
18533;BME280;9396;51.510;11.934;2023-02-28T04:54:56;101996.34;;;1.73;85.31
18533;BME280;9396;51.510;11.934;2023-02-28T04:57:22;101988.97;;;1.61;85.01
18533;BME280;9396;51.510;11.934;2023-02-28T04:59:49;101997.63;;;1.63;84.64
18533;BME280;9396;51.510;11.934;2023-02-28T05:02:17;102002.69;;;1.68;84.74
18533;BME280;9396;51.510;11.934;2023-02-28T05:04:43;101992.88;;;1.73;85.19
18533;BME280;9396;51.510;11.934;2023-02-28T05:07:10;101995.47;;;1.74;83.75
18533;BME280;9396;51.510;11.934;2023-02-28T05:09:36;101992.31;;;1.65;83.65
18533;BME280;9396;51.510;11.934;2023-02-28T05:12:03;101996.03;;;1.59;83.74
18533;BME280;9396;51.510;11.934;2023-02-28T05:14:30;102001.47;;;1.55;84.48
18533;BME280;9396;51.510;11.934;2023-02-28T05:16:56;102006.41;;;1.39;83.83
18533;BME280;9396;51.510;11.934;2023-02-28T05:19:24;102001.09;;;1.41;84.41
18533;BME280;9396;51.510;11.934;2023-02-28T05:21:52;102010.44;;;1.00;84.34
18533;BME280;9396;51.510;11.934;2023-02-28T05:24:20;102008.31;;;1.11;86.23
18533;BME280;9396;51.510;11.934;2023-02-28T05:26:49;102011.72;;;1.13;85.19
18533;BME280;9396;51.510;11.934;2023-02-28T05:29:16;102015.28;;;1.12;85.64
18533;BME280;9396;51.510;11.934;2023-02-28T05:31:43;102008.19;;;1.14;86.16
18533;BME280;9396;51.510;11.934;2023-02-28T05:34:10;102015.38;;;0.84;86.75
18533;BME280;9396;51.510;11.934;2023-02-28T05:36:39;102022.72;;;0.98;85.95
18533;BME280;9396;51.510;11.934;2023-02-28T05:39:06;101917.44;;;0.41;86.02
18533;BME280;9396;51.510;11.934;2023-02-28T05:41:38;102023.66;;;0.97;87.40
18533;BME280;9396;51.510;11.934;2023-02-28T05:44:05;102025.34;;;0.98;86.34
18533;BME280;9396;51.510;11.934;2023-02-28T05:46:31;102030.28;;;1.07;86.66
18533;BME280;9396;51.510;11.934;2023-02-28T05:48:58;102032.91;;;1.07;86.36
18533;BME280;9396;51.510;11.934;2023-02-28T05:51:26;102026.75;;;1.08;86.28
18533;BME280;9396;51.510;11.934;2023-02-28T05:53:53;102033.00;;;1.04;87.25
18533;BME280;9396;51.510;11.934;2023-02-28T05:56:20;102034.88;;;1.00;87.24
18533;BME280;9396;51.510;11.934;2023-02-28T05:58:47;102029.59;;;1.02;87.74
18533;BME280;9396;51.510;11.934;2023-02-28T06:01:23;102033.59;;;0.87;87.45
18533;BME280;9396;51.510;11.934;2023-02-28T06:03:49;102038.69;;;0.92;88.04
18533;BME280;9396;51.510;11.934;2023-02-28T06:06:16;102039.63;;;0.89;87.37
18533;BME280;9396;51.510;11.934;2023-02-28T06:08:43;102038.88;;;0.86;88.12
18533;BME280;9396;51.510;11.934;2023-02-28T06:11:12;102043.69;;;0.98;87.90
18533;BME280;9396;51.510;11.934;2023-02-28T06:13:39;102048.66;;;1.05;87.87
18533;BME280;9396;51.510;11.934;2023-02-28T06:16:06;102049.47;;;1.07;87.17
18533;BME280;9396;51.510;11.934;2023-02-28T06:18:33;102053.03;;;1.06;86.49
18533;BME280;9396;51.510;11.934;2023-02-28T06:20:59;102052.28;;;1.01;87.18
18533;BME280;9396;51.510;11.934;2023-02-28T06:23:26;102049.84;;;0.97;86.74
18533;BME280;9396;51.510;11.934;2023-02-28T06:25:53;102053.34;;;0.97;87.51
18533;BME280;9396;51.510;11.934;2023-02-28T06:28:24;102059.28;;;1.02;87.65
18533;BME280;9396;51.510;11.934;2023-02-28T06:30:51;102056.84;;;0.96;87.45
18533;BME280;9396;51.510;11.934;2023-02-28T06:33:18;102069.31;;;0.90;87.73
18533;BME280;9396;51.510;11.934;2023-02-28T06:35:46;102064.53;;;0.76;87.31
18533;BME280;9396;51.510;11.934;2023-02-28T06:38:13;102068.69;;;0.82;87.74
18533;BME280;9396;51.510;11.934;2023-02-28T06:40:39;102074.16;;;0.76;88.05
18533;BME280;9396;51.510;11.934;2023-02-28T06:43:06;102080.19;;;0.78;87.93
18533;BME280;9396;51.510;11.934;2023-02-28T06:45:34;102083.13;;;0.69;87.46
18533;BME280;9396;51.510;11.934;2023-02-28T06:48:01;102083.00;;;0.72;88.14
18533;BME280;9396;51.510;11.934;2023-02-28T06:50:27;102088.28;;;0.70;87.40
18533;BME280;9396;51.510;11.934;2023-02-28T06:52:56;102089.50;;;0.60;88.75
18533;BME280;9396;51.510;11.934;2023-02-28T06:55:22;102078.00;;;0.66;88.03
18533;BME280;9396;51.510;11.934;2023-02-28T06:57:49;102083.75;;;0.75;87.68
18533;BME280;9396;51.510;11.934;2023-02-28T07:00:16;102094.88;;;0.56;87.64
18533;BME280;9396;51.510;11.934;2023-02-28T07:02:44;102088.53;;;0.63;87.61
18533;BME280;9396;51.510;11.934;2023-02-28T07:05:12;102083.97;;;0.69;88.93
18533;BME280;9396;51.510;11.934;2023-02-28T07:07:39;102083.69;;;0.77;88.75
18533;BME280;9396;51.510;11.934;2023-02-28T07:10:10;102087.25;;;0.76;87.83
18533;BME280;9396;51.510;11.934;2023-02-28T07:12:37;102089.63;;;0.83;88.74
18533;BME280;9396;51.510;11.934;2023-02-28T07:15:05;102086.25;;;0.78;87.93
18533;BME280;9396;51.510;11.934;2023-02-28T07:17:31;102094.09;;;0.80;89.12
18533;BME280;9396;51.510;11.934;2023-02-28T07:19:59;102091.38;;;0.83;89.57
18533;BME280;9396;51.510;11.934;2023-02-28T07:22:26;102100.91;;;0.85;89.49
18533;BME280;9396;51.510;11.934;2023-02-28T07:24:53;102103.09;;;0.97;89.45
18533;BME280;9396;51.510;11.934;2023-02-28T07:27:20;102097.19;;;0.91;88.67
18533;BME280;9396;51.510;11.934;2023-02-28T07:29:51;101926.50;;;-0.22;89.48
18533;BME280;9396;51.510;11.934;2023-02-28T07:32:17;102104.66;;;1.03;88.89
18533;BME280;9396;51.510;11.934;2023-02-28T07:34:45;101918.44;;;-0.16;87.79
18533;BME280;9396;51.510;11.934;2023-02-28T07:37:13;102100.63;;;1.19;87.69
18533;BME280;9396;51.510;11.934;2023-02-28T07:39:39;102100.38;;;1.00;86.48
18533;BME280;9396;51.510;11.934;2023-02-28T07:42:07;102101.13;;;1.04;86.61
18533;BME280;9396;51.510;11.934;2023-02-28T07:44:35;102111.41;;;1.10;87.64
18533;BME280;9396;51.510;11.934;2023-02-28T07:47:05;102113.53;;;1.24;86.86
18533;BME280;9396;51.510;11.934;2023-02-28T07:49:32;102112.88;;;0.92;86.53
18533;BME280;9396;51.510;11.934;2023-02-28T07:51:59;102109.94;;;1.01;85.03
18533;BME280;9396;51.510;11.934;2023-02-28T07:54:27;102107.31;;;1.01;85.17
18533;BME280;9396;51.510;11.934;2023-02-28T07:56:53;102115.22;;;1.26;85.39
18533;BME280;9396;51.510;11.934;2023-02-28T07:59:20;102114.47;;;1.47;84.54
18533;BME280;9396;51.510;11.934;2023-02-28T08:01:46;102110.38;;;1.14;83.06
18533;BME280;9396;51.510;11.934;2023-02-28T08:04:15;102110.19;;;1.20;82.10
18533;BME280;9396;51.510;11.934;2023-02-28T08:06:42;102110.22;;;1.43;83.36
18533;BME280;9396;51.510;11.934;2023-02-28T08:09:08;102109.59;;;1.61;82.90
18533;BME280;9396;51.510;11.934;2023-02-28T08:11:37;102097.53;;;1.56;81.53
18533;BME280;9396;51.510;11.934;2023-02-28T08:14:04;102113.66;;;1.45;80.33
18533;BME280;9396;51.510;11.934;2023-02-28T08:16:31;102109.75;;;1.32;81.06
18533;BME280;9396;51.510;11.934;2023-02-28T08:18:57;102111.88;;;1.21;80.60
18533;BME280;9396;51.510;11.934;2023-02-28T08:21:24;102119.47;;;1.29;80.69
18533;BME280;9396;51.510;11.934;2023-02-28T08:23:51;102029.88;;;0.68;81.12
18533;BME280;9396;51.510;11.934;2023-02-28T08:26:17;102112.72;;;1.46;80.97
18533;BME280;9396;51.510;11.934;2023-02-28T08:28:46;102115.59;;;1.40;81.51
18533;BME280;9396;51.510;11.934;2023-02-28T08:31:14;102114.94;;;1.58;80.75
18533;BME280;9396;51.510;11.934;2023-02-28T08:33:42;102101.13;;;1.76;81.47
18533;BME280;9396;51.510;11.934;2023-02-28T08:36:10;102112.91;;;1.89;79.58
18533;BME280;9396;51.510;11.934;2023-02-28T08:38:37;102107.97;;;1.57;78.59
18533;BME280;9396;51.510;11.934;2023-02-28T08:41:06;102118.56;;;1.54;78.83
18533;BME280;9396;51.510;11.934;2023-02-28T08:43:34;102108.28;;;1.48;79.64
18533;BME280;9396;51.510;11.934;2023-02-28T08:46:02;102109.63;;;1.60;79.45
18533;BME280;9396;51.510;11.934;2023-02-28T08:48:31;102111.53;;;1.79;80.22
18533;BME280;9396;51.510;11.934;2023-02-28T08:50:58;102102.47;;;1.65;78.98
18533;BME280;9396;51.510;11.934;2023-02-28T08:53:26;102111.34;;;1.84;79.74
18533;BME280;9396;51.510;11.934;2023-02-28T08:55:57;102112.75;;;1.71;77.79
18533;BME280;9396;51.510;11.934;2023-02-28T08:58:24;102112.88;;;1.66;76.60
18533;BME280;9396;51.510;11.934;2023-02-28T09:00:51;102113.09;;;1.85;76.94
18533;BME280;9396;51.510;11.934;2023-02-28T09:03:19;102113.50;;;2.19;76.71
18533;BME280;9396;51.510;11.934;2023-02-28T09:05:52;102107.88;;;2.30;76.99
18533;BME280;9396;51.510;11.934;2023-02-28T09:08:19;102108.09;;;2.24;76.40
18533;BME280;9396;51.510;11.934;2023-02-28T09:10:45;102105.06;;;2.34;76.12
18533;BME280;9396;51.510;11.934;2023-02-28T09:13:12;102121.44;;;2.17;76.41
18533;BME280;9396;51.510;11.934;2023-02-28T09:15:39;102109.25;;;1.93;76.51
18533;BME280;9396;51.510;11.934;2023-02-28T09:18:05;102114.72;;;2.10;75.08
18533;BME280;9396;51.510;11.934;2023-02-28T09:20:33;102114.75;;;2.32;74.43
18533;BME280;9396;51.510;11.934;2023-02-28T09:23:00;102115.25;;;2.42;73.78
18533;BME280;9396;51.510;11.934;2023-02-28T09:25:27;102109.03;;;2.66;73.32
18533;BME280;9396;51.510;11.934;2023-02-28T09:27:53;102114.03;;;2.93;72.64
18533;BME280;9396;51.510;11.934;2023-02-28T09:30:20;102115.44;;;2.80;72.45
18533;BME280;9396;51.510;11.934;2023-02-28T09:32:47;102113.31;;;2.68;73.69
18533;BME280;9396;51.510;11.934;2023-02-28T09:35:17;102113.38;;;2.67;74.50
18533;BME280;9396;51.510;11.934;2023-02-28T09:37:45;102108.88;;;2.90;72.44
18533;BME280;9396;51.510;11.934;2023-02-28T09:40:12;102112.00;;;3.20;72.35
18533;BME280;9396;51.510;11.934;2023-02-28T09:42:44;102111.22;;;3.18;69.80
18533;BME280;9396;51.510;11.934;2023-02-28T09:45:19;102101.91;;;3.31;68.36
18533;BME280;9396;51.510;11.934;2023-02-28T09:47:48;102109.88;;;3.08;67.42
18533;BME280;9396;51.510;11.934;2023-02-28T09:50:28;102105.22;;;2.94;66.03
18533;BME280;9396;51.510;11.934;2023-02-28T09:52:58;102103.25;;;2.99;65.31
18533;BME280;9396;51.510;11.934;2023-02-28T09:55:29;102110.44;;;3.16;66.07
18533;BME280;9396;51.510;11.934;2023-02-28T09:57:57;102100.56;;;3.41;66.28
18533;BME280;9396;51.510;11.934;2023-02-28T10:00:30;102107.09;;;3.33;66.17
18533;BME280;9396;51.510;11.934;2023-02-28T10:03:06;102105.97;;;3.38;66.35
18533;BME280;9396;51.510;11.934;2023-02-28T10:05:40;102117.13;;;3.23;65.49
18533;BME280;9396;51.510;11.934;2023-02-28T10:08:14;102111.91;;;3.01;64.66
18533;BME280;9396;51.510;11.934;2023-02-28T10:10:44;102119.28;;;2.93;64.25
18533;BME280;9396;51.510;11.934;2023-02-28T10:13:23;102116.63;;;3.15;64.54
18533;BME280;9396;51.510;11.934;2023-02-28T10:15:54;102112.25;;;3.14;64.32
18533;BME280;9396;51.510;11.934;2023-02-28T10:18:24;102114.81;;;3.15;65.08
18533;BME280;9396;51.510;11.934;2023-02-28T10:20:54;102091.16;;;2.95;63.12
18533;BME280;9396;51.510;11.934;2023-02-28T10:23:26;102104.59;;;3.09;63.21
18533;BME280;9396;51.510;11.934;2023-02-28T10:25:57;102105.16;;;3.16;63.19
18533;BME280;9396;51.510;11.934;2023-02-28T10:28:25;102107.66;;;3.19;62.78
18533;BME280;9396;51.510;11.934;2023-02-28T10:30:53;102108.72;;;3.15;62.74
18533;BME280;9396;51.510;11.934;2023-02-28T10:33:23;102108.84;;;3.12;63.67
18533;BME280;9396;51.510;11.934;2023-02-28T10:35:50;102107.13;;;3.11;63.19
18533;BME280;9396;51.510;11.934;2023-02-28T10:38:19;102100.25;;;2.87;63.07
18533;BME280;9396;51.510;11.934;2023-02-28T10:40:48;102106.50;;;3.06;64.50
18533;BME280;9396;51.510;11.934;2023-02-28T10:43:22;102104.91;;;3.02;62.80
18533;BME280;9396;51.510;11.934;2023-02-28T10:45:56;102099.19;;;3.12;63.84
18533;BME280;9396;51.510;11.934;2023-02-28T10:48:34;102092.69;;;3.21;65.39
18533;BME280;9396;51.510;11.934;2023-02-28T10:51:04;102093.13;;;3.10;64.07
18533;BME280;9396;51.510;11.934;2023-02-28T10:53:38;102088.75;;;3.11;64.70
18533;BME280;9396;51.510;11.934;2023-02-28T10:56:15;102083.88;;;3.22;64.49
18533;BME280;9396;51.510;11.934;2023-02-28T10:58:49;102085.25;;;3.10;65.30
18533;BME280;9396;51.510;11.934;2023-02-28T11:01:17;102090.44;;;3.32;65.89
18533;BME280;9396;51.510;11.934;2023-02-28T11:03:44;102084.53;;;3.07;64.54
18533;BME280;9396;51.510;11.934;2023-02-28T11:06:16;102076.66;;;3.27;65.37
18533;BME280;9396;51.510;11.934;2023-02-28T11:08:48;102057.84;;;3.36;65.54
18533;BME280;9396;51.510;11.934;2023-02-28T11:11:17;102072.75;;;3.56;65.35
18533;BME280;9396;51.510;11.934;2023-02-28T11:13:46;102074.28;;;3.41;64.57
18533;BME280;9396;51.510;11.934;2023-02-28T11:16:15;102073.53;;;3.58;65.01
18533;BME280;9396;51.510;11.934;2023-02-28T11:18:47;102078.44;;;3.65;65.03
18533;BME280;9396;51.510;11.934;2023-02-28T11:21:23;102072.19;;;3.68;64.50
18533;BME280;9396;51.510;11.934;2023-02-28T11:23:56;102071.09;;;3.33;64.87
18533;BME280;9396;51.510;11.934;2023-02-28T11:26:42;102069.00;;;3.41;65.04
18533;BME280;9396;51.510;11.934;2023-02-28T11:29:13;102067.25;;;3.42;65.51
18533;BME280;9396;51.510;11.934;2023-02-28T11:31:55;102077.28;;;3.52;65.44
18533;BME280;9396;51.510;11.934;2023-02-28T11:34:28;102077.75;;;3.42;64.94
18533;BME280;9396;51.510;11.934;2023-02-28T11:36:56;102070.28;;;3.33;65.14
18533;BME280;9396;51.510;11.934;2023-02-28T11:39:24;102077.88;;;3.39;64.83
18533;BME280;9396;51.510;11.934;2023-02-28T11:42:07;102073.47;;;3.39;65.21
18533;BME280;9396;51.510;11.934;2023-02-28T11:44:47;102064.97;;;3.53;66.25
18533;BME280;9396;51.510;11.934;2023-02-28T11:47:25;102060.66;;;3.70;66.89
18533;BME280;9396;51.510;11.934;2023-02-28T11:50:08;102060.19;;;3.42;65.47
18533;BME280;9396;51.510;11.934;2023-02-28T11:52:45;102056.09;;;3.55;65.47
18533;BME280;9396;51.510;11.934;2023-02-28T11:55:17;102057.53;;;3.62;65.32
18533;BME280;9396;51.510;11.934;2023-02-28T11:58:05;102060.44;;;3.56;65.34
18533;BME280;9396;51.510;11.934;2023-02-28T12:00:47;102061.44;;;3.54;66.00
18533;BME280;9396;51.510;11.934;2023-02-28T12:03:27;102058.94;;;3.51;65.26
18533;BME280;9396;51.510;11.934;2023-02-28T12:06:14;102052.84;;;3.69;65.17
18533;BME280;9396;51.510;11.934;2023-02-28T12:09:04;102048.28;;;3.54;66.46
18533;BME280;9396;51.510;11.934;2023-02-28T12:11:48;102046.06;;;3.63;65.94
18533;BME280;9396;51.510;11.934;2023-02-28T12:14:47;102042.53;;;3.83;66.42
18533;BME280;9396;51.510;11.934;2023-02-28T12:17:22;102048.16;;;3.75;65.73
18533;BME280;9396;51.510;11.934;2023-02-28T12:19:59;102034.00;;;3.78;65.20
18533;BME280;9396;51.510;11.934;2023-02-28T12:22:29;102032.94;;;3.82;65.31
18533;BME280;9396;51.510;11.934;2023-02-28T12:25:22;102039.25;;;3.78;64.88
18533;BME280;9396;51.510;11.934;2023-02-28T12:27:51;102028.03;;;3.93;64.74
18533;BME280;9396;51.510;11.934;2023-02-28T12:30:22;102030.94;;;4.05;64.76
18533;BME280;9396;51.510;11.934;2023-02-28T12:32:53;102024.00;;;3.86;64.50
18533;BME280;9396;51.510;11.934;2023-02-28T12:35:24;102026.09;;;3.78;64.58
18533;BME280;9396;51.510;11.934;2023-02-28T12:37:56;102031.66;;;3.72;65.31
18533;BME280;9396;51.510;11.934;2023-02-28T12:40:31;102022.69;;;3.76;64.74
18533;BME280;9396;51.510;11.934;2023-02-28T12:43:04;102023.13;;;3.85;65.07
18533;BME280;9396;51.510;11.934;2023-02-28T12:45:40;102010.19;;;3.81;64.74
18533;BME280;9396;51.510;11.934;2023-02-28T12:48:11;102009.63;;;3.93;65.86
18533;BME280;9396;51.510;11.934;2023-02-28T12:50:41;102017.44;;;3.94;64.64
18533;BME280;9396;51.510;11.934;2023-02-28T12:53:13;102002.94;;;3.86;64.33
18533;BME280;9396;51.510;11.934;2023-02-28T12:55:44;102006.75;;;3.97;65.07
18533;BME280;9396;51.510;11.934;2023-02-28T12:58:16;102004.97;;;3.98;64.85
18533;BME280;9396;51.510;11.934;2023-02-28T13:01:06;101979.44;;;3.81;64.76
18533;BME280;9396;51.510;11.934;2023-02-28T13:03:59;101984.28;;;3.90;65.51
18533;BME280;9396;51.510;11.934;2023-02-28T13:06:41;101978.31;;;3.87;65.65
18533;BME280;9396;51.510;11.934;2023-02-28T13:09:12;101979.59;;;3.97;65.22
18533;BME280;9396;51.510;11.934;2023-02-28T13:11:42;101983.22;;;3.76;64.89
18533;BME280;9396;51.510;11.934;2023-02-28T13:14:23;101984.78;;;3.98;66.23
18533;BME280;9396;51.510;11.934;2023-02-28T13:16:55;101984.41;;;4.06;65.14
18533;BME280;9396;51.510;11.934;2023-02-28T13:19:24;101980.50;;;3.96;64.54